This is the latest recevied weather packets stored in our database for station/object WH6VH. If no packets are shown the sender has not sent any weather packets the latest 10 day(s).
| Time | Temp. | Humidity | Pressure | Rain* | Wind** | Luminosity | Snow |
|---|---|---|---|---|---|---|---|
| 1777377305 | 1.67° C | 93% | 1016.2 hPa | 0 mm | - | - | - |
| 1777377005 | 1.67° C | 93% | 1016 hPa | 0 mm | - | - | - |
| 1777375805 | 1.67° C | 92% | 1015.5 hPa | 0 mm | - | - | - |
| 1777372505 | 1.67° C | 92% | 1015.6 hPa | 0 mm | - | - | - |
| 1777371905 | 1.67° C | 92% | 1015.5 hPa | 0 mm | - | - | - |
| 1777370404 | 1.67° C | 91% | 1015.7 hPa | 0 mm | - | - | - |
| 1777369504 | 2.22° C | 91% | 1015.8 hPa | 0 mm | - | - | - |
| 1777366205 | 2.78° C | 90% | 1016.4 hPa | 0 mm | - | - | - |
| 1777365605 | 2.78° C | 90% | 1016.8 hPa | 0.25 mm | - | - | - |
| 1777365305 | 2.78° C | 90% | 1016.6 hPa | 0.25 mm | - | - | - |
| 1777365005 | 2.78° C | 90% | 1016.6 hPa | 0.25 mm | - | - | - |
| 1777361405 | 3.89° C | 90% | 1016.9 hPa | 0.25 mm | - | - | - |
| 1777360505 | 3.89° C | 90% | 1016.9 hPa | 0.76 mm | - | - | - |
| 1777356605 | 3.89° C | 88% | 1016.9 hPa | 1.52 mm | - | - | - |
| 1777354506 | 5° C | 87% | 1016.7 hPa | 0 mm | - | - | - |
| 1777353305 | 5.56° C | 88% | 1016.5 hPa | 0 mm | - | - | - |
| 1777346705 | 6.11° C | 88% | 1016.1 hPa | 1.02 mm | - | - | - |
| 1777346105 | 6.67° C | 87% | 1016.2 hPa | 1.27 mm | - | - | - |
| 1777345805 | 6.67° C | 87% | 1016.2 hPa | 1.52 mm | - | - | - |
| 1777345506 | 6.67° C | 86% | 1016 hPa | 1.78 mm | - | - | - |
| 1777344606 | 7.22° C | 85% | 1016.1 hPa | 1.02 mm | - | - | - |
| 1777340105 | 8.89° C | 75% | 1014.7 hPa | 0.25 mm | - | - | - |
| 1777338605 | 9.44° C | 72% | 1014.5 hPa | 0.25 mm | - | - | - |
| 1777337705 | 10° C | 66% | 1014.5 hPa | 0 mm | - | - | - |
| 1777335006 | 10° C | 61% | 1014.2 hPa | 0 mm | - | - | - |
* Rain latest hour (hover to see other rain measurements)
** Current wind speed in m/s (hover to see current wind gust speed)